Terminal Aerodrome Forecast
Issued by NWS Greer, SC

Current Version | Previous Version | Text Only | Print | Product List | Glossary On
Versions: 1 2 3 4 5 6 7 8 9 10 11 12 13 14 15 16 17 18 19 20 21 22 23 24 25 26 27 28
000
FTUS42 KGSP 220853 AAB
TAFAVL
TAF AMD
KAVL 220853Z 2209/2306 00000KT 3SM BR OVC002
      TEMPO 2209/2212 2SM BR BKN001
     FM221400 VRB03KT P6SM FEW035
     FM221700 21006KT P6SM SCT040 PROB30 2219/2224 4SM -TSRA
      BKN035CB
     FM230300 VRB03KT P6SM SCT100=

USA.gov is the U.S. government's official web portal to all federal, state and local government web resources and services.